sensor_id;sensor_type;location;lat;lon;timestamp;P1;durP1;ratioP1;P2;durP2;ratioP2
47367;SDS011;34646;47.964;7.982;2023-12-20T00:04:01;3.47;;;1.60;;
47367;SDS011;34646;47.964;7.982;2023-12-20T00:10:03;4.28;;;1.80;;
47367;SDS011;34646;47.964;7.982;2023-12-20T00:16:04;4.67;;;1.87;;
47367;SDS011;34646;47.964;7.982;2023-12-20T00:22:05;5.30;;;2.03;;
47367;SDS011;34646;47.964;7.982;2023-12-20T00:28:05;4.40;;;2.20;;
47367;SDS011;34646;47.964;7.982;2023-12-20T00:34:06;4.93;;;2.07;;
47367;SDS011;34646;47.964;7.982;2023-12-20T00:40:07;4.23;;;1.50;;
47367;SDS011;34646;47.964;7.982;2023-12-20T00:46:08;3.95;;;1.80;;
47367;SDS011;34646;47.964;7.982;2023-12-20T00:52:09;3.90;;;1.70;;
47367;SDS011;34646;47.964;7.982;2023-12-20T00:58:09;5.37;;;1.80;;
47367;SDS011;34646;47.964;7.982;2023-12-20T01:04:10;7.57;;;1.67;;
47367;SDS011;34646;47.964;7.982;2023-12-20T01:10:11;4.37;;;1.77;;
47367;SDS011;34646;47.964;7.982;2023-12-20T01:16:11;4.77;;;1.83;;
47367;SDS011;34646;47.964;7.982;2023-12-20T01:22:12;5.10;;;1.60;;
47367;SDS011;34646;47.964;7.982;2023-12-20T01:28:13;2.87;;;1.47;;
47367;SDS011;34646;47.964;7.982;2023-12-20T01:34:13;3.47;;;1.50;;
47367;SDS011;34646;47.964;7.982;2023-12-20T01:40:14;3.53;;;1.63;;
47367;SDS011;34646;47.964;7.982;2023-12-20T01:46:15;4.63;;;1.70;;
47367;SDS011;34646;47.964;7.982;2023-12-20T01:52:16;4.32;;;1.75;;
47367;SDS011;34646;47.964;7.982;2023-12-20T01:58:17;5.60;;;1.77;;
47367;SDS011;34646;47.964;7.982;2023-12-20T02:04:19;2.55;;;1.27;;
47367;SDS011;34646;47.964;7.982;2023-12-20T02:10:20;3.83;;;1.83;;
47367;SDS011;34646;47.964;7.982;2023-12-20T02:16:21;2.80;;;1.23;;
47367;SDS011;34646;47.964;7.982;2023-12-20T02:22:22;4.03;;;1.30;;
47367;SDS011;34646;47.964;7.982;2023-12-20T02:28:23;4.77;;;1.70;;
47367;SDS011;34646;47.964;7.982;2023-12-20T02:34:24;2.60;;;1.30;;
47367;SDS011;34646;47.964;7.982;2023-12-20T02:40:24;3.93;;;1.73;;
47367;SDS011;34646;47.964;7.982;2023-12-20T02:46:25;2.90;;;1.40;;
47367;SDS011;34646;47.964;7.982;2023-12-20T02:52:27;2.60;;;1.47;;
47367;SDS011;34646;47.964;7.982;2023-12-20T02:58:28;3.00;;;1.15;;
47367;SDS011;34646;47.964;7.982;2023-12-20T03:04:29;4.97;;;1.50;;
47367;SDS011;34646;47.964;7.982;2023-12-20T03:10:30;2.87;;;1.13;;
47367;SDS011;34646;47.964;7.982;2023-12-20T03:16:30;2.67;;;1.50;;
47367;SDS011;34646;47.964;7.982;2023-12-20T03:22:33;3.15;;;1.60;;
47367;SDS011;34646;47.964;7.982;2023-12-20T03:28:34;3.40;;;1.23;;
47367;SDS011;34646;47.964;7.982;2023-12-20T03:34:36;3.10;;;1.60;;
47367;SDS011;34646;47.964;7.982;2023-12-20T03:40:36;2.27;;;1.20;;
47367;SDS011;34646;47.964;7.982;2023-12-20T03:46:37;2.70;;;1.30;;
47367;SDS011;34646;47.964;7.982;2023-12-20T03:52:38;3.63;;;1.50;;
47367;SDS011;34646;47.964;7.982;2023-12-20T03:58:38;2.40;;;1.03;;
47367;SDS011;34646;47.964;7.982;2023-12-20T04:04:39;2.60;;;1.20;;
47367;SDS011;34646;47.964;7.982;2023-12-20T04:10:39;2.70;;;1.30;;
47367;SDS011;34646;47.964;7.982;2023-12-20T04:16:40;2.70;;;1.17;;
47367;SDS011;34646;47.964;7.982;2023-12-20T04:22:41;2.87;;;1.20;;
47367;SDS011;34646;47.964;7.982;2023-12-20T04:28:42;2.97;;;1.20;;
47367;SDS011;34646;47.964;7.982;2023-12-20T04:34:43;2.17;;;1.07;;
47367;SDS011;34646;47.964;7.982;2023-12-20T04:40:43;2.07;;;0.90;;
47367;SDS011;34646;47.964;7.982;2023-12-20T04:46:44;2.77;;;1.00;;
47367;SDS011;34646;47.964;7.982;2023-12-20T04:52:45;1.70;;;0.90;;
47367;SDS011;34646;47.964;7.982;2023-12-20T04:58:45;3.73;;;1.63;;
47367;SDS011;34646;47.964;7.982;2023-12-20T05:04:47;2.25;;;1.05;;
47367;SDS011;34646;47.964;7.982;2023-12-20T05:10:47;3.33;;;0.93;;
47367;SDS011;34646;47.964;7.982;2023-12-20T05:16:48;2.60;;;0.90;;
47367;SDS011;34646;47.964;7.982;2023-12-20T05:22:49;1.70;;;1.00;;
47367;SDS011;34646;47.964;7.982;2023-12-20T05:28:49;2.37;;;1.10;;
47367;SDS011;34646;47.964;7.982;2023-12-20T05:34:50;2.77;;;1.00;;
47367;SDS011;34646;47.964;7.982;2023-12-20T05:40:51;2.77;;;1.20;;
47367;SDS011;34646;47.964;7.982;2023-12-20T05:46:51;7.33;;;5.50;;
47367;SDS011;34646;47.964;7.982;2023-12-20T05:52:52;3.27;;;2.30;;
47367;SDS011;34646;47.964;7.982;2023-12-20T05:58:53;6.53;;;2.47;;
47367;SDS011;34646;47.964;7.982;2023-12-20T06:04:54;5.90;;;1.93;;
47367;SDS011;34646;47.964;7.982;2023-12-20T06:10:55;3.00;;;1.93;;
47367;SDS011;34646;47.964;7.982;2023-12-20T06:16:55;6.03;;;1.90;;
47367;SDS011;34646;47.964;7.982;2023-12-20T06:22:56;4.13;;;2.37;;
47367;SDS011;34646;47.964;7.982;2023-12-20T06:28:57;2.63;;;1.60;;
47367;SDS011;34646;47.964;7.982;2023-12-20T06:34:57;3.57;;;2.13;;
47367;SDS011;34646;47.964;7.982;2023-12-20T06:40:58;4.60;;;2.23;;
47367;SDS011;34646;47.964;7.982;2023-12-20T06:46:59;4.67;;;2.00;;
47367;SDS011;34646;47.964;7.982;2023-12-20T06:53:00;3.70;;;1.87;;
47367;SDS011;34646;47.964;7.982;2023-12-20T06:59:06;3.63;;;1.63;;
47367;SDS011;34646;47.964;7.982;2023-12-20T07:05:07;4.90;;;1.90;;
47367;SDS011;34646;47.964;7.982;2023-12-20T07:11:08;4.87;;;1.73;;
47367;SDS011;34646;47.964;7.982;2023-12-20T07:17:09;1.93;;;1.63;;
47367;SDS011;34646;47.964;7.982;2023-12-20T07:23:11;2.70;;;1.60;;
47367;SDS011;34646;47.964;7.982;2023-12-20T07:29:12;2.97;;;1.60;;
47367;SDS011;34646;47.964;7.982;2023-12-20T07:35:12;2.70;;;1.80;;
47367;SDS011;34646;47.964;7.982;2023-12-20T07:41:14;4.35;;;1.88;;
47367;SDS011;34646;47.964;7.982;2023-12-20T07:47:16;2.58;;;1.65;;
47367;SDS011;34646;47.964;7.982;2023-12-20T07:53:21;3.35;;;1.70;;
47367;SDS011;34646;47.964;7.982;2023-12-20T07:59:22;3.87;;;1.43;;
47367;SDS011;34646;47.964;7.982;2023-12-20T08:05:23;2.90;;;1.40;;
47367;SDS011;34646;47.964;7.982;2023-12-20T08:11:23;6.00;;;1.70;;
47367;SDS011;34646;47.964;7.982;2023-12-20T08:17:24;5.23;;;1.87;;
47367;SDS011;34646;47.964;7.982;2023-12-20T08:23:25;2.80;;;1.63;;
47367;SDS011;34646;47.964;7.982;2023-12-20T08:29:26;3.73;;;1.47;;
47367;SDS011;34646;47.964;7.982;2023-12-20T08:35:27;2.60;;;1.37;;
47367;SDS011;34646;47.964;7.982;2023-12-20T08:41:27;2.23;;;1.50;;
47367;SDS011;34646;47.964;7.982;2023-12-20T08:47:28;3.37;;;1.73;;
47367;SDS011;34646;47.964;7.982;2023-12-20T08:53:28;8.93;;;1.97;;
47367;SDS011;34646;47.964;7.982;2023-12-20T08:59:29;3.00;;;1.57;;
47367;SDS011;34646;47.964;7.982;2023-12-20T09:05:30;1.63;;;1.00;;
47367;SDS011;34646;47.964;7.982;2023-12-20T09:11:31;2.10;;;1.40;;
47367;SDS011;34646;47.964;7.982;2023-12-20T09:17:31;3.00;;;1.30;;
47367;SDS011;34646;47.964;7.982;2023-12-20T09:23:32;3.13;;;1.10;;
47367;SDS011;34646;47.964;7.982;2023-12-20T09:29:32;3.50;;;1.60;;
47367;SDS011;34646;47.964;7.982;2023-12-20T09:35:33;2.03;;;1.33;;
47367;SDS011;34646;47.964;7.982;2023-12-20T09:41:35;2.17;;;1.43;;
47367;SDS011;34646;47.964;7.982;2023-12-20T09:47:41;3.50;;;1.40;;
47367;SDS011;34646;47.964;7.982;2023-12-20T09:53:43;6.95;;;1.45;;
47367;SDS011;34646;47.964;7.982;2023-12-20T10:05:45;1.92;;;1.20;;
47367;SDS011;34646;47.964;7.982;2023-12-20T10:11:49;3.15;;;1.40;;
47367;SDS011;34646;47.964;7.982;2023-12-20T10:17:50;3.47;;;1.60;;
47367;SDS011;34646;47.964;7.982;2023-12-20T10:23:50;3.00;;;1.40;;
47367;SDS011;34646;47.964;7.982;2023-12-20T10:29:51;2.03;;;1.13;;
47367;SDS011;34646;47.964;7.982;2023-12-20T10:35:52;2.27;;;1.33;;
47367;SDS011;34646;47.964;7.982;2023-12-20T10:41:54;1.75;;;1.10;;
47367;SDS011;34646;47.964;7.982;2023-12-20T10:47:54;2.57;;;1.43;;
47367;SDS011;34646;47.964;7.982;2023-12-20T10:53:59;3.05;;;1.55;;
47367;SDS011;34646;47.964;7.982;2023-12-20T11:00:00;2.30;;;1.33;;
47367;SDS011;34646;47.964;7.982;2023-12-20T11:18:54;2.35;;;1.02;;
47367;SDS011;34646;47.964;7.982;2023-12-20T11:25:08;2.60;;;1.40;;
47367;SDS011;34646;47.964;7.982;2023-12-20T11:31:10;1.77;;;1.30;;
47367;SDS011;34646;47.964;7.982;2023-12-20T11:37:15;1.63;;;1.10;;
47367;SDS011;34646;47.964;7.982;2023-12-20T11:49:36;2.08;;;1.08;;
47367;SDS011;34646;47.964;7.982;2023-12-20T11:55:36;1.63;;;0.87;;
47367;SDS011;34646;47.964;7.982;2023-12-20T12:01:37;1.63;;;0.90;;
47367;SDS011;34646;47.964;7.982;2023-12-20T12:07:38;1.40;;;1.00;;
47367;SDS011;34646;47.964;7.982;2023-12-20T12:13:39;2.50;;;1.60;;
47367;SDS011;34646;47.964;7.982;2023-12-20T12:19:40;2.27;;;1.80;;
47367;SDS011;34646;47.964;7.982;2023-12-20T12:25:41;2.65;;;1.90;;
47367;SDS011;34646;47.964;7.982;2023-12-20T12:31:42;2.10;;;1.50;;
47367;SDS011;34646;47.964;7.982;2023-12-20T12:37:43;3.97;;;1.80;;
47367;SDS011;34646;47.964;7.982;2023-12-20T12:43:43;5.03;;;1.47;;
47367;SDS011;34646;47.964;7.982;2023-12-20T12:49:44;5.67;;;1.73;;
47367;SDS011;34646;47.964;7.982;2023-12-20T12:55:45;14.40;;;3.50;;
47367;SDS011;34646;47.964;7.982;2023-12-20T13:01:46;12.23;;;4.13;;
47367;SDS011;34646;47.964;7.982;2023-12-20T13:07:47;20.63;;;6.10;;
47367;SDS011;34646;47.964;7.982;2023-12-20T13:13:48;20.27;;;7.13;;
47367;SDS011;34646;47.964;7.982;2023-12-20T13:19:49;23.15;;;7.55;;
47367;SDS011;34646;47.964;7.982;2023-12-20T13:25:49;24.47;;;8.03;;
47367;SDS011;34646;47.964;7.982;2023-12-20T13:31:51;27.85;;;10.13;;
47367;SDS011;34646;47.964;7.982;2023-12-20T13:37:51;28.47;;;8.70;;
47367;SDS011;34646;47.964;7.982;2023-12-20T13:43:52;34.10;;;9.20;;
47367;SDS011;34646;47.964;7.982;2023-12-20T13:49:54;28.63;;;8.60;;
47367;SDS011;34646;47.964;7.982;2023-12-20T13:55:56;28.55;;;9.07;;
47367;SDS011;34646;47.964;7.982;2023-12-20T14:01:57;28.17;;;9.32;;
47367;SDS011;34646;47.964;7.982;2023-12-20T14:07:58;27.03;;;8.97;;
47367;SDS011;34646;47.964;7.982;2023-12-20T14:14:00;25.08;;;9.02;;
47367;SDS011;34646;47.964;7.982;2023-12-20T14:26:03;19.67;;;6.63;;
47367;SDS011;34646;47.964;7.982;2023-12-20T14:32:04;21.17;;;8.03;;
47367;SDS011;34646;47.964;7.982;2023-12-20T14:38:06;23.70;;;7.72;;
47367;SDS011;34646;47.964;7.982;2023-12-20T14:44:06;21.70;;;7.53;;
47367;SDS011;34646;47.964;7.982;2023-12-20T14:50:07;21.67;;;7.00;;
47367;SDS011;34646;47.964;7.982;2023-12-20T14:56:08;23.67;;;8.30;;
47367;SDS011;34646;47.964;7.982;2023-12-20T15:02:09;31.48;;;9.13;;
47367;SDS011;34646;47.964;7.982;2023-12-20T15:08:10;27.83;;;9.23;;
47367;SDS011;34646;47.964;7.982;2023-12-20T15:14:11;27.90;;;8.80;;
47367;SDS011;34646;47.964;7.982;2023-12-20T15:20:14;24.55;;;8.55;;
47367;SDS011;34646;47.964;7.982;2023-12-20T15:26:15;24.80;;;9.03;;
47367;SDS011;34646;47.964;7.982;2023-12-20T15:32:16;30.30;;;8.40;;
47367;SDS011;34646;47.964;7.982;2023-12-20T15:38:18;21.85;;;7.13;;
47367;SDS011;34646;47.964;7.982;2023-12-20T15:44:19;22.43;;;7.27;;
47367;SDS011;34646;47.964;7.982;2023-12-20T15:50:20;20.67;;;7.60;;
47367;SDS011;34646;47.964;7.982;2023-12-20T15:56:21;20.97;;;7.97;;
47367;SDS011;34646;47.964;7.982;2023-12-20T16:02:22;21.13;;;8.10;;
47367;SDS011;34646;47.964;7.982;2023-12-20T16:08:23;22.57;;;7.43;;
47367;SDS011;34646;47.964;7.982;2023-12-20T16:14:23;20.73;;;6.53;;
47367;SDS011;34646;47.964;7.982;2023-12-20T16:20:27;20.70;;;6.68;;
47367;SDS011;34646;47.964;7.982;2023-12-20T16:26:27;25.87;;;7.83;;
47367;SDS011;34646;47.964;7.982;2023-12-20T16:32:28;19.53;;;6.47;;
47367;SDS011;34646;47.964;7.982;2023-12-20T16:38:29;19.50;;;6.43;;
47367;SDS011;34646;47.964;7.982;2023-12-20T16:44:30;16.77;;;6.20;;
47367;SDS011;34646;47.964;7.982;2023-12-20T16:50:31;20.07;;;6.53;;
47367;SDS011;34646;47.964;7.982;2023-12-20T16:56:32;17.13;;;5.87;;
47367;SDS011;34646;47.964;7.982;2023-12-20T17:02:33;13.43;;;5.60;;
47367;SDS011;34646;47.964;7.982;2023-12-20T17:08:34;19.35;;;6.13;;
47367;SDS011;34646;47.964;7.982;2023-12-20T17:14:37;16.88;;;6.30;;
47367;SDS011;34646;47.964;7.982;2023-12-20T17:20:37;18.63;;;7.40;;
47367;SDS011;34646;47.964;7.982;2023-12-20T17:26:38;27.63;;;7.90;;
47367;SDS011;34646;47.964;7.982;2023-12-20T17:32:38;22.77;;;7.73;;
47367;SDS011;34646;47.964;7.982;2023-12-20T17:38:40;25.73;;;8.13;;
47367;SDS011;34646;47.964;7.982;2023-12-20T17:44:40;28.27;;;7.43;;
47367;SDS011;34646;47.964;7.982;2023-12-20T17:50:41;21.40;;;7.77;;
47367;SDS011;34646;47.964;7.982;2023-12-20T18:02:43;23.13;;;7.40;;
47367;SDS011;34646;47.964;7.982;2023-12-20T18:08:44;23.47;;;6.57;;
47367;SDS011;34646;47.964;7.982;2023-12-20T18:14:44;21.73;;;6.63;;
47367;SDS011;34646;47.964;7.982;2023-12-20T18:26:46;24.42;;;7.10;;
47367;SDS011;34646;47.964;7.982;2023-12-20T18:32:47;27.67;;;8.30;;
47367;SDS011;34646;47.964;7.982;2023-12-20T18:38:48;17.67;;;6.33;;
47367;SDS011;34646;47.964;7.982;2023-12-20T18:44:49;23.43;;;6.43;;
47367;SDS011;34646;47.964;7.982;2023-12-20T18:50:50;20.27;;;6.10;;
47367;SDS011;34646;47.964;7.982;2023-12-20T18:56:51;17.20;;;5.40;;
47367;SDS011;34646;47.964;7.982;2023-12-20T19:02:53;20.45;;;5.65;;
47367;SDS011;34646;47.964;7.982;2023-12-20T19:08:57;20.45;;;5.80;;
47367;SDS011;34646;47.964;7.982;2023-12-20T19:14:58;19.57;;;5.70;;
47367;SDS011;34646;47.964;7.982;2023-12-20T19:20:59;13.17;;;5.40;;
47367;SDS011;34646;47.964;7.982;2023-12-20T19:27:00;15.97;;;4.77;;
47367;SDS011;34646;47.964;7.982;2023-12-20T19:33:01;17.48;;;5.15;;
47367;SDS011;34646;47.964;7.982;2023-12-20T19:39:02;13.10;;;5.13;;
47367;SDS011;34646;47.964;7.982;2023-12-20T19:45:03;17.30;;;5.83;;
47367;SDS011;34646;47.964;7.982;2023-12-20T19:51:05;20.80;;;5.47;;
47367;SDS011;34646;47.964;7.982;2023-12-20T19:57:05;22.50;;;4.70;;
47367;SDS011;34646;47.964;7.982;2023-12-20T20:03:06;38.50;;;12.47;;
47367;SDS011;34646;47.964;7.982;2023-12-20T20:09:07;31.30;;;10.33;;
47367;SDS011;34646;47.964;7.982;2023-12-20T20:15:08;37.90;;;10.10;;
47367;SDS011;34646;47.964;7.982;2023-12-20T20:21:09;23.33;;;8.60;;
47367;SDS011;34646;47.964;7.982;2023-12-20T20:27:09;29.90;;;9.87;;
47367;SDS011;34646;47.964;7.982;2023-12-20T20:33:10;23.00;;;7.43;;
47367;SDS011;34646;47.964;7.982;2023-12-20T20:39:11;18.27;;;7.40;;
47367;SDS011;34646;47.964;7.982;2023-12-20T20:45:12;24.80;;;7.72;;
47367;SDS011;34646;47.964;7.982;2023-12-20T20:51:13;22.70;;;8.38;;
47367;SDS011;34646;47.964;7.982;2023-12-20T20:57:14;21.60;;;7.50;;
47367;SDS011;34646;47.964;7.982;2023-12-20T21:03:15;22.83;;;7.40;;
47367;SDS011;34646;47.964;7.982;2023-12-20T21:09:15;20.20;;;7.03;;
47367;SDS011;34646;47.964;7.982;2023-12-20T21:15:16;26.77;;;7.87;;
47367;SDS011;34646;47.964;7.982;2023-12-20T21:21:17;24.60;;;6.60;;
47367;SDS011;34646;47.964;7.982;2023-12-20T21:27:18;48.45;;;15.73;;
47367;SDS011;34646;47.964;7.982;2023-12-20T21:33:18;39.83;;;12.37;;
47367;SDS011;34646;47.964;7.982;2023-12-20T21:39:19;41.73;;;12.07;;
47367;SDS011;34646;47.964;7.982;2023-12-20T21:45:20;32.43;;;9.90;;
47367;SDS011;34646;47.964;7.982;2023-12-20T21:51:21;30.70;;;11.07;;
47367;SDS011;34646;47.964;7.982;2023-12-20T21:57:21;26.10;;;9.27;;
47367;SDS011;34646;47.964;7.982;2023-12-20T22:03:22;29.17;;;9.60;;
47367;SDS011;34646;47.964;7.982;2023-12-20T22:09:23;28.10;;;10.73;;
47367;SDS011;34646;47.964;7.982;2023-12-20T22:15:23;25.30;;;8.97;;
47367;SDS011;34646;47.964;7.982;2023-12-20T22:21:25;29.00;;;10.43;;
47367;SDS011;34646;47.964;7.982;2023-12-20T22:27:25;23.33;;;9.63;;
47367;SDS011;34646;47.964;7.982;2023-12-20T22:33:26;23.80;;;8.33;;
47367;SDS011;34646;47.964;7.982;2023-12-20T22:39:26;26.70;;;8.27;;
47367;SDS011;34646;47.964;7.982;2023-12-20T22:45:27;20.83;;;7.37;;
47367;SDS011;34646;47.964;7.982;2023-12-20T22:51:28;20.47;;;7.87;;
47367;SDS011;34646;47.964;7.982;2023-12-20T22:57:33;17.75;;;7.22;;
47367;SDS011;34646;47.964;7.982;2023-12-20T23:03:34;22.17;;;7.17;;
47367;SDS011;34646;47.964;7.982;2023-12-20T23:09:36;17.38;;;6.63;;
47367;SDS011;34646;47.964;7.982;2023-12-20T23:15:38;19.23;;;7.30;;
47367;SDS011;34646;47.964;7.982;2023-12-20T23:21:39;19.70;;;7.23;;
47367;SDS011;34646;47.964;7.982;2023-12-20T23:27:40;19.10;;;5.80;;
47367;SDS011;34646;47.964;7.982;2023-12-20T23:39:45;16.73;;;6.00;;
47367;SDS011;34646;47.964;7.982;2023-12-20T23:45:46;14.52;;;5.07;;
47367;SDS011;34646;47.964;7.982;2023-12-20T23:51:47;17.73;;;6.13;;
47367;SDS011;34646;47.964;7.982;2023-12-20T23:57:48;15.93;;;5.90;;
